sensor_id;sensor_type;location;lat;lon;timestamp;P1;durP1;ratioP1;P2;durP2;ratioP2
40204;SDS011;26963;42.666;23.366;2023-06-04T00:02:16;5.15;;;3.55;;
40204;SDS011;26963;42.666;23.366;2023-06-04T00:04:41;4.63;;;3.13;;
40204;SDS011;26963;42.666;23.366;2023-06-04T00:07:07;4.60;;;3.20;;
40204;SDS011;26963;42.666;23.366;2023-06-04T00:09:32;4.07;;;3.00;;
40204;SDS011;26963;42.666;23.366;2023-06-04T00:11:58;5.30;;;3.28;;
40204;SDS011;26963;42.666;23.366;2023-06-04T00:14:23;4.50;;;3.25;;
40204;SDS011;26963;42.666;23.366;2023-06-04T00:16:49;4.72;;;3.33;;
40204;SDS011;26963;42.666;23.366;2023-06-04T00:19:15;4.70;;;3.22;;
40204;SDS011;26963;42.666;23.366;2023-06-04T00:21:40;5.20;;;3.40;;
40204;SDS011;26963;42.666;23.366;2023-06-04T00:24:06;5.60;;;3.60;;
40204;SDS011;26963;42.666;23.366;2023-06-04T00:26:31;5.78;;;3.63;;
40204;SDS011;26963;42.666;23.366;2023-06-04T00:28:57;5.43;;;3.22;;
40204;SDS011;26963;42.666;23.366;2023-06-04T00:31:22;6.18;;;3.30;;
40204;SDS011;26963;42.666;23.366;2023-06-04T00:33:48;5.22;;;3.20;;
40204;SDS011;26963;42.666;23.366;2023-06-04T00:36:14;4.53;;;3.58;;
40204;SDS011;26963;42.666;23.366;2023-06-04T00:38:39;5.65;;;3.47;;
40204;SDS011;26963;42.666;23.366;2023-06-04T00:41:05;5.50;;;3.53;;
40204;SDS011;26963;42.666;23.366;2023-06-04T00:43:31;4.75;;;3.47;;
40204;SDS011;26963;42.666;23.366;2023-06-04T00:45:57;4.93;;;3.40;;
40204;SDS011;26963;42.666;23.366;2023-06-04T00:48:23;4.55;;;3.72;;
40204;SDS011;26963;42.666;23.366;2023-06-04T00:50:53;7.88;;;4.13;;
40204;SDS011;26963;42.666;23.366;2023-06-04T00:53:20;5.82;;;5.10;;
40204;SDS011;26963;42.666;23.366;2023-06-04T00:55:48;6.80;;;5.35;;
40204;SDS011;26963;42.666;23.366;2023-06-04T00:58:13;7.03;;;4.97;;
40204;SDS011;26963;42.666;23.366;2023-06-04T01:00:40;7.60;;;5.63;;
40204;SDS011;26963;42.666;23.366;2023-06-04T01:03:10;7.55;;;5.10;;
40204;SDS011;26963;42.666;23.366;2023-06-04T01:08:34;5.40;;;4.63;;
40204;SDS011;26963;42.666;23.366;2023-06-04T01:11:00;7.60;;;5.05;;
40204;SDS011;26963;42.666;23.366;2023-06-04T01:13:25;5.35;;;4.57;;
40204;SDS011;26963;42.666;23.366;2023-06-04T01:15:51;6.60;;;4.35;;
40204;SDS011;26963;42.666;23.366;2023-06-04T01:18:23;7.47;;;4.57;;
40204;SDS011;26963;42.666;23.366;2023-06-04T01:21:02;11.07;;;5.32;;
40204;SDS011;26963;42.666;23.366;2023-06-04T01:26:01;6.68;;;4.60;;
40204;SDS011;26963;42.666;23.366;2023-06-04T01:28:30;7.50;;;4.43;;
40204;SDS011;26963;42.666;23.366;2023-06-04T01:30:58;6.65;;;3.85;;
40204;SDS011;26963;42.666;23.366;2023-06-04T01:33:27;5.45;;;3.58;;
40204;SDS011;26963;42.666;23.366;2023-06-04T01:35:53;4.25;;;3.25;;
40204;SDS011;26963;42.666;23.366;2023-06-04T01:38:18;3.50;;;2.92;;
40204;SDS011;26963;42.666;23.366;2023-06-04T01:40:45;4.07;;;3.15;;
40204;SDS011;26963;42.666;23.366;2023-06-04T01:43:10;3.88;;;3.00;;
40204;SDS011;26963;42.666;23.366;2023-06-04T01:45:36;3.80;;;2.92;;
40204;SDS011;26963;42.666;23.366;2023-06-04T01:48:02;3.70;;;2.90;;
40204;SDS011;26963;42.666;23.366;2023-06-04T01:50:30;4.55;;;2.92;;
40204;SDS011;26963;42.666;23.366;2023-06-04T01:52:55;3.72;;;2.50;;
40204;SDS011;26963;42.666;23.366;2023-06-04T01:55:21;4.35;;;2.60;;
40204;SDS011;26963;42.666;23.366;2023-06-04T01:57:47;3.80;;;2.65;;
40204;SDS011;26963;42.666;23.366;2023-06-04T02:00:13;5.97;;;2.95;;
40204;SDS011;26963;42.666;23.366;2023-06-04T02:02:40;4.20;;;2.63;;
40204;SDS011;26963;42.666;23.366;2023-06-04T02:05:08;3.30;;;2.70;;
40204;SDS011;26963;42.666;23.366;2023-06-04T02:07:35;4.07;;;2.55;;
40204;SDS011;26963;42.666;23.366;2023-06-04T02:10:04;3.35;;;2.63;;
40204;SDS011;26963;42.666;23.366;2023-06-04T02:12:31;5.25;;;2.78;;
40204;SDS011;26963;42.666;23.366;2023-06-04T02:14:56;3.53;;;2.70;;
40204;SDS011;26963;42.666;23.366;2023-06-04T02:17:22;5.70;;;2.92;;
40204;SDS011;26963;42.666;23.366;2023-06-04T02:19:47;5.15;;;2.72;;
40204;SDS011;26963;42.666;23.366;2023-06-04T02:22:19;3.53;;;2.80;;
40204;SDS011;26963;42.666;23.366;2023-06-04T02:24:45;3.78;;;2.70;;
40204;SDS011;26963;42.666;23.366;2023-06-04T02:27:11;4.53;;;3.00;;
40204;SDS011;26963;42.666;23.366;2023-06-04T02:29:38;3.13;;;2.80;;
40204;SDS011;26963;42.666;23.366;2023-06-04T02:32:04;5.60;;;2.72;;
40204;SDS011;26963;42.666;23.366;2023-06-04T02:34:31;5.88;;;2.92;;
40204;SDS011;26963;42.666;23.366;2023-06-04T02:36:59;6.07;;;3.05;;
40204;SDS011;26963;42.666;23.366;2023-06-04T02:39:25;4.45;;;3.00;;
40204;SDS011;26963;42.666;23.366;2023-06-04T02:41:51;4.88;;;3.10;;
40204;SDS011;26963;42.666;23.366;2023-06-04T02:44:16;3.90;;;3.22;;
40204;SDS011;26963;42.666;23.366;2023-06-04T02:46:43;4.90;;;3.55;;
40204;SDS011;26963;42.666;23.366;2023-06-04T02:49:09;4.05;;;3.10;;
40204;SDS011;26963;42.666;23.366;2023-06-04T02:51:42;4.65;;;3.25;;
40204;SDS011;26963;42.666;23.366;2023-06-04T02:56:36;5.70;;;3.50;;
40204;SDS011;26963;42.666;23.366;2023-06-04T02:59:02;6.25;;;3.30;;
40204;SDS011;26963;42.666;23.366;2023-06-04T03:01:28;4.50;;;3.30;;
40204;SDS011;26963;42.666;23.366;2023-06-04T03:03:54;5.18;;;3.05;;
40204;SDS011;26963;42.666;23.366;2023-06-04T03:06:20;7.25;;;3.28;;
40204;SDS011;26963;42.666;23.366;2023-06-04T03:08:50;4.40;;;2.97;;
40204;SDS011;26963;42.666;23.366;2023-06-04T03:11:17;4.78;;;3.45;;
40204;SDS011;26963;42.666;23.366;2023-06-04T03:13:44;4.90;;;3.22;;
40204;SDS011;26963;42.666;23.366;2023-06-04T03:16:13;7.22;;;2.97;;
40204;SDS011;26963;42.666;23.366;2023-06-04T03:18:42;5.20;;;3.00;;
40204;SDS011;26963;42.666;23.366;2023-06-04T03:21:08;5.78;;;3.00;;
40204;SDS011;26963;42.666;23.366;2023-06-04T03:23:34;4.25;;;3.15;;
40204;SDS011;26963;42.666;23.366;2023-06-04T03:26:03;4.60;;;3.05;;
40204;SDS011;26963;42.666;23.366;2023-06-04T03:28:31;4.85;;;3.03;;
40204;SDS011;26963;42.666;23.366;2023-06-04T03:30:57;6.93;;;3.20;;
40204;SDS011;26963;42.666;23.366;2023-06-04T03:33:24;4.85;;;2.92;;
40204;SDS011;26963;42.666;23.366;2023-06-04T03:35:50;3.85;;;2.97;;
40204;SDS011;26963;42.666;23.366;2023-06-04T03:38:17;4.93;;;3.30;;
40204;SDS011;26963;42.666;23.366;2023-06-04T03:40:43;6.13;;;3.17;;
40204;SDS011;26963;42.666;23.366;2023-06-04T03:43:09;5.20;;;3.35;;
40204;SDS011;26963;42.666;23.366;2023-06-04T03:45:35;4.03;;;2.92;;
40204;SDS011;26963;42.666;23.366;2023-06-04T03:48:00;4.53;;;3.20;;
40204;SDS011;26963;42.666;23.366;2023-06-04T03:50:26;5.68;;;3.10;;
40204;SDS011;26963;42.666;23.366;2023-06-04T03:52:51;4.78;;;3.30;;
40204;SDS011;26963;42.666;23.366;2023-06-04T03:55:17;4.72;;;3.10;;
40204;SDS011;26963;42.666;23.366;2023-06-04T03:57:43;5.50;;;3.33;;
40204;SDS011;26963;42.666;23.366;2023-06-04T04:00:09;6.55;;;2.90;;
40204;SDS011;26963;42.666;23.366;2023-06-04T04:02:37;5.28;;;3.10;;
40204;SDS011;26963;42.666;23.366;2023-06-04T04:05:03;4.80;;;3.10;;
40204;SDS011;26963;42.666;23.366;2023-06-04T04:07:29;10.15;;;3.47;;
40204;SDS011;26963;42.666;23.366;2023-06-04T04:09:55;7.03;;;3.30;;
40204;SDS011;26963;42.666;23.366;2023-06-04T04:12:21;6.03;;;3.13;;
40204;SDS011;26963;42.666;23.366;2023-06-04T04:14:46;5.95;;;3.25;;
40204;SDS011;26963;42.666;23.366;2023-06-04T04:17:13;4.85;;;3.45;;
40204;SDS011;26963;42.666;23.366;2023-06-04T04:19:39;4.95;;;3.42;;
40204;SDS011;26963;42.666;23.366;2023-06-04T04:22:04;6.22;;;3.55;;
40204;SDS011;26963;42.666;23.366;2023-06-04T04:24:31;3.85;;;3.20;;
40204;SDS011;26963;42.666;23.366;2023-06-04T04:26:59;5.90;;;3.50;;
40204;SDS011;26963;42.666;23.366;2023-06-04T04:29:25;7.93;;;3.47;;
40204;SDS011;26963;42.666;23.366;2023-06-04T04:31:51;6.63;;;3.50;;
40204;SDS011;26963;42.666;23.366;2023-06-04T04:34:17;6.38;;;3.53;;
40204;SDS011;26963;42.666;23.366;2023-06-04T04:36:46;4.32;;;3.60;;
40204;SDS011;26963;42.666;23.366;2023-06-04T04:39:17;7.15;;;3.33;;
40204;SDS011;26963;42.666;23.366;2023-06-04T04:41:44;7.15;;;3.97;;
40204;SDS011;26963;42.666;23.366;2023-06-04T04:44:10;6.20;;;4.00;;
40204;SDS011;26963;42.666;23.366;2023-06-04T04:46:35;7.25;;;3.83;;
40204;SDS011;26963;42.666;23.366;2023-06-04T04:49:01;7.05;;;4.40;;
40204;SDS011;26963;42.666;23.366;2023-06-04T04:51:27;7.50;;;4.00;;
40204;SDS011;26963;42.666;23.366;2023-06-04T04:53:52;8.07;;;4.47;;
40204;SDS011;26963;42.666;23.366;2023-06-04T04:56:19;7.50;;;4.82;;
40204;SDS011;26963;42.666;23.366;2023-06-04T04:58:45;5.75;;;4.10;;
40204;SDS011;26963;42.666;23.366;2023-06-04T05:01:11;6.90;;;4.47;;
40204;SDS011;26963;42.666;23.366;2023-06-04T05:03:36;7.32;;;4.28;;
40204;SDS011;26963;42.666;23.366;2023-06-04T05:06:02;10.40;;;4.50;;
40204;SDS011;26963;42.666;23.366;2023-06-04T05:08:27;7.10;;;4.35;;
40204;SDS011;26963;42.666;23.366;2023-06-04T05:10:53;10.52;;;4.68;;
40204;SDS011;26963;42.666;23.366;2023-06-04T05:13:18;6.53;;;4.35;;
40204;SDS011;26963;42.666;23.366;2023-06-04T05:15:45;8.75;;;4.30;;
40204;SDS011;26963;42.666;23.366;2023-06-04T05:18:13;5.78;;;4.45;;
40204;SDS011;26963;42.666;23.366;2023-06-04T05:20:41;6.88;;;4.93;;
40204;SDS011;26963;42.666;23.366;2023-06-04T05:23:08;7.97;;;5.53;;
40204;SDS011;26963;42.666;23.366;2023-06-04T05:25:33;8.52;;;5.03;;
40204;SDS011;26963;42.666;23.366;2023-06-04T05:27:59;9.02;;;4.57;;
40204;SDS011;26963;42.666;23.366;2023-06-04T05:30:24;8.65;;;5.45;;
40204;SDS011;26963;42.666;23.366;2023-06-04T05:32:50;10.02;;;4.93;;
40204;SDS011;26963;42.666;23.366;2023-06-04T05:35:18;6.15;;;4.90;;
40204;SDS011;26963;42.666;23.366;2023-06-04T05:37:45;8.60;;;4.80;;
40204;SDS011;26963;42.666;23.366;2023-06-04T05:40:11;8.80;;;4.72;;
40204;SDS011;26963;42.666;23.366;2023-06-04T05:42:37;5.72;;;4.97;;
40204;SDS011;26963;42.666;23.366;2023-06-04T05:45:03;6.88;;;5.10;;
40204;SDS011;26963;42.666;23.366;2023-06-04T05:47:30;9.10;;;5.38;;
40204;SDS011;26963;42.666;23.366;2023-06-04T05:49:56;8.82;;;5.28;;
40204;SDS011;26963;42.666;23.366;2023-06-04T05:52:22;8.43;;;5.50;;
40204;SDS011;26963;42.666;23.366;2023-06-04T05:54:48;7.82;;;4.72;;
40204;SDS011;26963;42.666;23.366;2023-06-04T05:57:14;8.23;;;4.90;;
40204;SDS011;26963;42.666;23.366;2023-06-04T05:59:40;7.75;;;5.60;;
40204;SDS011;26963;42.666;23.366;2023-06-04T06:02:05;12.05;;;5.45;;
40204;SDS011;26963;42.666;23.366;2023-06-04T06:04:31;10.48;;;5.10;;
40204;SDS011;26963;42.666;23.366;2023-06-04T06:06:56;13.02;;;5.55;;
40204;SDS011;26963;42.666;23.366;2023-06-04T06:09:22;8.60;;;5.32;;
40204;SDS011;26963;42.666;23.366;2023-06-04T06:11:48;7.38;;;5.00;;
40204;SDS011;26963;42.666;23.366;2023-06-04T06:14:13;7.82;;;5.03;;
40204;SDS011;26963;42.666;23.366;2023-06-04T06:16:40;7.68;;;5.35;;
40204;SDS011;26963;42.666;23.366;2023-06-04T06:19:05;7.65;;;5.93;;
40204;SDS011;26963;42.666;23.366;2023-06-04T06:21:31;8.93;;;5.57;;
40204;SDS011;26963;42.666;23.366;2023-06-04T06:23:56;6.78;;;4.70;;
40204;SDS011;26963;42.666;23.366;2023-06-04T06:26:22;9.00;;;4.32;;
40204;SDS011;26963;42.666;23.366;2023-06-04T06:28:50;8.77;;;4.85;;
40204;SDS011;26963;42.666;23.366;2023-06-04T06:31:15;9.30;;;5.28;;
40204;SDS011;26963;42.666;23.366;2023-06-04T06:33:41;7.78;;;4.65;;
40204;SDS011;26963;42.666;23.366;2023-06-04T06:36:07;8.77;;;5.25;;
40204;SDS011;26963;42.666;23.366;2023-06-04T06:38:35;10.63;;;5.68;;
40204;SDS011;26963;42.666;23.366;2023-06-04T06:41:00;9.25;;;5.55;;
40204;SDS011;26963;42.666;23.366;2023-06-04T06:43:25;8.63;;;5.38;;
40204;SDS011;26963;42.666;23.366;2023-06-04T06:45:51;10.80;;;5.10;;
40204;SDS011;26963;42.666;23.366;2023-06-04T06:48:17;7.88;;;5.30;;
40204;SDS011;26963;42.666;23.366;2023-06-04T06:50:42;7.78;;;4.57;;
40204;SDS011;26963;42.666;23.366;2023-06-04T06:53:07;9.00;;;4.97;;
40204;SDS011;26963;42.666;23.366;2023-06-04T06:55:33;8.25;;;5.38;;
40204;SDS011;26963;42.666;23.366;2023-06-04T06:57:58;7.50;;;4.43;;
40204;SDS011;26963;42.666;23.366;2023-06-04T07:00:25;7.95;;;5.05;;
40204;SDS011;26963;42.666;23.366;2023-06-04T07:02:52;9.43;;;5.28;;
40204;SDS011;26963;42.666;23.366;2023-06-04T07:05:18;6.95;;;4.63;;
40204;SDS011;26963;42.666;23.366;2023-06-04T07:07:44;7.80;;;5.18;;
40204;SDS011;26963;42.666;23.366;2023-06-04T07:10:09;7.80;;;4.90;;
40204;SDS011;26963;42.666;23.366;2023-06-04T07:12:35;8.13;;;5.15;;
40204;SDS011;26963;42.666;23.366;2023-06-04T07:15:01;7.72;;;5.25;;
40204;SDS011;26963;42.666;23.366;2023-06-04T07:17:27;6.85;;;5.00;;
40204;SDS011;26963;42.666;23.366;2023-06-04T07:19:52;6.18;;;5.00;;
40204;SDS011;26963;42.666;23.366;2023-06-04T07:22:18;6.97;;;4.78;;
40204;SDS011;26963;42.666;23.366;2023-06-04T07:24:43;8.75;;;4.75;;
40204;SDS011;26963;42.666;23.366;2023-06-04T07:27:10;7.50;;;5.45;;
40204;SDS011;26963;42.666;23.366;2023-06-04T07:29:39;7.20;;;5.32;;
40204;SDS011;26963;42.666;23.366;2023-06-04T07:32:05;7.35;;;5.32;;
40204;SDS011;26963;42.666;23.366;2023-06-04T07:34:32;6.78;;;5.20;;
40204;SDS011;26963;42.666;23.366;2023-06-04T07:36:57;7.93;;;4.68;;
40204;SDS011;26963;42.666;23.366;2023-06-04T07:39:23;9.05;;;5.10;;
40204;SDS011;26963;42.666;23.366;2023-06-04T07:41:48;7.95;;;5.15;;
40204;SDS011;26963;42.666;23.366;2023-06-04T07:44:14;7.13;;;5.00;;
40204;SDS011;26963;42.666;23.366;2023-06-04T07:46:40;6.32;;;5.10;;
40204;SDS011;26963;42.666;23.366;2023-06-04T07:49:05;7.65;;;5.00;;
40204;SDS011;26963;42.666;23.366;2023-06-04T07:51:31;6.57;;;5.22;;
40204;SDS011;26963;42.666;23.366;2023-06-04T07:53:56;11.13;;;5.45;;
40204;SDS011;26963;42.666;23.366;2023-06-04T07:56:22;6.28;;;4.68;;
40204;SDS011;26963;42.666;23.366;2023-06-04T07:58:48;7.03;;;5.22;;
40204;SDS011;26963;42.666;23.366;2023-06-04T08:01:13;7.40;;;4.85;;
40204;SDS011;26963;42.666;23.366;2023-06-04T08:03:39;9.43;;;5.18;;
40204;SDS011;26963;42.666;23.366;2023-06-04T08:06:06;6.43;;;5.20;;
40204;SDS011;26963;42.666;23.366;2023-06-04T08:08:32;11.65;;;5.57;;
40204;SDS011;26963;42.666;23.366;2023-06-04T08:10:59;12.10;;;5.10;;
40204;SDS011;26963;42.666;23.366;2023-06-04T08:13:25;9.25;;;4.97;;
40204;SDS011;26963;42.666;23.366;2023-06-04T08:15:51;9.77;;;7.03;;
40204;SDS011;26963;42.666;23.366;2023-06-04T08:18:16;10.20;;;5.38;;
40204;SDS011;26963;42.666;23.366;2023-06-04T08:20:42;7.70;;;6.10;;
40204;SDS011;26963;42.666;23.366;2023-06-04T08:23:07;8.73;;;6.00;;
40204;SDS011;26963;42.666;23.366;2023-06-04T08:25:33;8.68;;;7.38;;
40204;SDS011;26963;42.666;23.366;2023-06-04T08:27:58;10.85;;;7.72;;
40204;SDS011;26963;42.666;23.366;2023-06-04T08:30:24;9.57;;;7.22;;
40204;SDS011;26963;42.666;23.366;2023-06-04T08:32:50;10.00;;;6.35;;
40204;SDS011;26963;42.666;23.366;2023-06-04T08:35:16;8.70;;;6.60;;
40204;SDS011;26963;42.666;23.366;2023-06-04T08:37:42;7.63;;;6.35;;
40204;SDS011;26963;42.666;23.366;2023-06-04T08:40:08;7.75;;;6.80;;
40204;SDS011;26963;42.666;23.366;2023-06-04T08:42:37;10.68;;;7.38;;
40204;SDS011;26963;42.666;23.366;2023-06-04T08:45:08;8.30;;;6.95;;
40204;SDS011;26963;42.666;23.366;2023-06-04T08:47:37;9.38;;;6.60;;
40204;SDS011;26963;42.666;23.366;2023-06-04T08:50:03;7.80;;;6.70;;
40204;SDS011;26963;42.666;23.366;2023-06-04T08:52:33;9.43;;;7.10;;
40204;SDS011;26963;42.666;23.366;2023-06-04T08:54:59;8.88;;;6.35;;
40204;SDS011;26963;42.666;23.366;2023-06-04T08:57:25;7.90;;;6.25;;
40204;SDS011;26963;42.666;23.366;2023-06-04T08:59:51;8.85;;;6.30;;
40204;SDS011;26963;42.666;23.366;2023-06-04T09:02:16;9.52;;;6.93;;
40204;SDS011;26963;42.666;23.366;2023-06-04T09:04:43;9.88;;;7.18;;
40204;SDS011;26963;42.666;23.366;2023-06-04T09:07:10;8.57;;;6.85;;
40204;SDS011;26963;42.666;23.366;2023-06-04T09:09:38;10.90;;;7.18;;
40204;SDS011;26963;42.666;23.366;2023-06-04T09:12:11;9.95;;;7.07;;
40204;SDS011;26963;42.666;23.366;2023-06-04T09:14:42;10.27;;;7.20;;
40204;SDS011;26963;42.666;23.366;2023-06-04T09:17:08;13.50;;;8.05;;
40204;SDS011;26963;42.666;23.366;2023-06-04T09:19:33;9.48;;;6.88;;
40204;SDS011;26963;42.666;23.366;2023-06-04T09:21:59;10.10;;;7.03;;
40204;SDS011;26963;42.666;23.366;2023-06-04T09:27:24;10.02;;;7.53;;
40204;SDS011;26963;42.666;23.366;2023-06-04T09:32:21;10.55;;;7.95;;
40204;SDS011;26963;42.666;23.366;2023-06-04T09:34:51;10.45;;;7.85;;
40204;SDS011;26963;42.666;23.366;2023-06-04T09:37:18;10.02;;;7.75;;
40204;SDS011;26963;42.666;23.366;2023-06-04T09:39:52;10.32;;;9.00;;
40204;SDS011;26963;42.666;23.366;2023-06-04T09:42:18;12.65;;;10.50;;
40204;SDS011;26963;42.666;23.366;2023-06-04T09:44:44;11.02;;;9.23;;
40204;SDS011;26963;42.666;23.366;2023-06-04T09:47:11;11.90;;;9.05;;
40204;SDS011;26963;42.666;23.366;2023-06-04T09:49:46;11.60;;;9.07;;
40204;SDS011;26963;42.666;23.366;2023-06-04T09:52:13;10.85;;;8.75;;
40204;SDS011;26963;42.666;23.366;2023-06-04T09:54:40;11.73;;;8.70;;
40204;SDS011;26963;42.666;23.366;2023-06-04T09:57:16;13.68;;;7.82;;
40204;SDS011;26963;42.666;23.366;2023-06-04T09:59:46;9.85;;;8.00;;
40204;SDS011;26963;42.666;23.366;2023-06-04T10:02:18;8.32;;;7.20;;
40204;SDS011;26963;42.666;23.366;2023-06-04T10:04:48;9.48;;;7.22;;
40204;SDS011;26963;42.666;23.366;2023-06-04T10:07:20;8.40;;;6.45;;
40204;SDS011;26963;42.666;23.366;2023-06-04T10:09:47;10.35;;;6.95;;
40204;SDS011;26963;42.666;23.366;2023-06-04T10:12:15;9.93;;;6.75;;
40204;SDS011;26963;42.666;23.366;2023-06-04T10:14:47;9.55;;;6.18;;
40204;SDS011;26963;42.666;23.366;2023-06-04T10:17:17;11.38;;;6.80;;
40204;SDS011;26963;42.666;23.366;2023-06-04T10:19:46;8.18;;;6.50;;
40204;SDS011;26963;42.666;23.366;2023-06-04T10:22:17;7.85;;;6.45;;
40204;SDS011;26963;42.666;23.366;2023-06-04T10:24:43;10.15;;;6.68;;
40204;SDS011;26963;42.666;23.366;2023-06-04T10:27:09;10.27;;;6.93;;
40204;SDS011;26963;42.666;23.366;2023-06-04T10:29:38;8.57;;;6.13;;
40204;SDS011;26963;42.666;23.366;2023-06-04T10:32:04;8.55;;;6.70;;
40204;SDS011;26963;42.666;23.366;2023-06-04T10:34:30;10.05;;;6.53;;
40204;SDS011;26963;42.666;23.366;2023-06-04T10:36:57;8.35;;;5.93;;
40204;SDS011;26963;42.666;23.366;2023-06-04T10:39:26;12.18;;;7.50;;
40204;SDS011;26963;42.666;23.366;2023-06-04T10:41:59;11.25;;;7.20;;
40204;SDS011;26963;42.666;23.366;2023-06-04T10:44:32;8.95;;;6.97;;
40204;SDS011;26963;42.666;23.366;2023-06-04T10:49:49;8.05;;;6.68;;
40204;SDS011;26963;42.666;23.366;2023-06-04T10:52:16;7.65;;;6.60;;
40204;SDS011;26963;42.666;23.366;2023-06-04T10:54:42;10.85;;;7.10;;
40204;SDS011;26963;42.666;23.366;2023-06-04T10:57:14;8.63;;;7.00;;
40204;SDS011;26963;42.666;23.366;2023-06-04T10:59:41;10.07;;;7.40;;
40204;SDS011;26963;42.666;23.366;2023-06-04T11:02:18;8.27;;;6.70;;
40204;SDS011;26963;42.666;23.366;2023-06-04T11:04:44;10.18;;;6.82;;
40204;SDS011;26963;42.666;23.366;2023-06-04T11:07:09;10.40;;;7.38;;
40204;SDS011;26963;42.666;23.366;2023-06-04T11:09:35;7.60;;;6.55;;
40204;SDS011;26963;42.666;23.366;2023-06-04T11:12:03;11.32;;;7.43;;
40204;SDS011;26963;42.666;23.366;2023-06-04T11:14:30;8.75;;;5.97;;
40204;SDS011;26963;42.666;23.366;2023-06-04T11:16:56;10.55;;;7.10;;
40204;SDS011;26963;42.666;23.366;2023-06-04T11:19:22;8.77;;;6.80;;
40204;SDS011;26963;42.666;23.366;2023-06-04T11:21:48;9.43;;;6.70;;
40204;SDS011;26963;42.666;23.366;2023-06-04T11:24:14;10.40;;;7.10;;
40204;SDS011;26963;42.666;23.366;2023-06-04T11:26:41;7.65;;;6.85;;
40204;SDS011;26963;42.666;23.366;2023-06-04T11:29:07;10.85;;;7.22;;
40204;SDS011;26963;42.666;23.366;2023-06-04T11:31:45;7.68;;;6.55;;
40204;SDS011;26963;42.666;23.366;2023-06-04T11:34:24;11.00;;;7.43;;
40204;SDS011;26963;42.666;23.366;2023-06-04T11:36:55;9.43;;;6.68;;
40204;SDS011;26963;42.666;23.366;2023-06-04T11:39:21;10.52;;;6.93;;
40204;SDS011;26963;42.666;23.366;2023-06-04T11:41:48;7.72;;;6.72;;
40204;SDS011;26963;42.666;23.366;2023-06-04T11:44:18;9.23;;;6.75;;
40204;SDS011;26963;42.666;23.366;2023-06-04T11:46:45;8.07;;;7.28;;
40204;SDS011;26963;42.666;23.366;2023-06-04T11:49:11;7.43;;;6.70;;
40204;SDS011;26963;42.666;23.366;2023-06-04T11:51:45;9.05;;;7.22;;
40204;SDS011;26963;42.666;23.366;2023-06-04T11:54:12;10.32;;;8.13;;
40204;SDS011;26963;42.666;23.366;2023-06-04T11:56:38;9.25;;;7.75;;
40204;SDS011;26963;42.666;23.366;2023-06-04T11:59:04;10.50;;;6.70;;
40204;SDS011;26963;42.666;23.366;2023-06-04T12:01:31;7.72;;;6.72;;
40204;SDS011;26963;42.666;23.366;2023-06-04T12:03:57;9.07;;;7.03;;
40204;SDS011;26963;42.666;23.366;2023-06-04T12:06:23;9.73;;;7.13;;
40204;SDS011;26963;42.666;23.366;2023-06-04T12:08:52;10.55;;;6.53;;
40204;SDS011;26963;42.666;23.366;2023-06-04T12:13:47;7.97;;;7.18;;
40204;SDS011;26963;42.666;23.366;2023-06-04T12:16:16;10.02;;;7.20;;
40204;SDS011;26963;42.666;23.366;2023-06-04T12:18:42;9.38;;;7.28;;
40204;SDS011;26963;42.666;23.366;2023-06-04T12:21:16;9.20;;;7.43;;
40204;SDS011;26963;42.666;23.366;2023-06-04T12:23:52;9.23;;;7.15;;
40204;SDS011;26963;42.666;23.366;2023-06-04T12:26:37;9.27;;;7.38;;
40204;SDS011;26963;42.666;23.366;2023-06-04T12:29:15;9.27;;;7.07;;
40204;SDS011;26963;42.666;23.366;2023-06-04T12:31:42;8.35;;;7.05;;
40204;SDS011;26963;42.666;23.366;2023-06-04T12:34:09;8.05;;;7.05;;
40204;SDS011;26963;42.666;23.366;2023-06-04T12:36:36;9.05;;;7.65;;
40204;SDS011;26963;42.666;23.366;2023-06-04T12:39:04;11.05;;;6.68;;
40204;SDS011;26963;42.666;23.366;2023-06-04T12:41:30;8.10;;;7.30;;
40204;SDS011;26963;42.666;23.366;2023-06-04T12:43:58;10.43;;;7.13;;
40204;SDS011;26963;42.666;23.366;2023-06-04T12:46:24;8.55;;;6.85;;
40204;SDS011;26963;42.666;23.366;2023-06-04T12:48:50;8.73;;;7.80;;
40204;SDS011;26963;42.666;23.366;2023-06-04T12:51:17;10.82;;;7.25;;
40204;SDS011;26963;42.666;23.366;2023-06-04T12:53:43;7.72;;;6.63;;
40204;SDS011;26963;42.666;23.366;2023-06-04T12:56:09;9.93;;;7.50;;
40204;SDS011;26963;42.666;23.366;2023-06-04T12:58:35;13.20;;;10.05;;
40204;SDS011;26963;42.666;23.366;2023-06-04T13:01:01;12.00;;;7.35;;
40204;SDS011;26963;42.666;23.366;2023-06-04T13:03:29;11.27;;;6.82;;
40204;SDS011;26963;42.666;23.366;2023-06-04T13:08:40;7.78;;;6.60;;
40204;SDS011;26963;42.666;23.366;2023-06-04T13:11:06;8.70;;;7.72;;
40204;SDS011;26963;42.666;23.366;2023-06-04T13:13:31;8.73;;;7.18;;
40204;SDS011;26963;42.666;23.366;2023-06-04T13:15:57;9.80;;;7.47;;
40204;SDS011;26963;42.666;23.366;2023-06-04T13:18:23;7.85;;;6.70;;
40204;SDS011;26963;42.666;23.366;2023-06-04T13:20:48;7.68;;;6.47;;
40204;SDS011;26963;42.666;23.366;2023-06-04T13:23:14;8.18;;;6.75;;
40204;SDS011;26963;42.666;23.366;2023-06-04T13:25:40;7.38;;;6.40;;
40204;SDS011;26963;42.666;23.366;2023-06-04T13:28:06;8.80;;;6.40;;
40204;SDS011;26963;42.666;23.366;2023-06-04T13:30:33;7.88;;;6.50;;
40204;SDS011;26963;42.666;23.366;2023-06-04T13:33:01;16.52;;;6.72;;
40204;SDS011;26963;42.666;23.366;2023-06-04T13:35:27;8.30;;;6.15;;
40204;SDS011;26963;42.666;23.366;2023-06-04T13:37:52;7.72;;;6.35;;
40204;SDS011;26963;42.666;23.366;2023-06-04T13:40:18;12.15;;;6.40;;
40204;SDS011;26963;42.666;23.366;2023-06-04T13:42:44;9.43;;;6.47;;
40204;SDS011;26963;42.666;23.366;2023-06-04T13:45:10;7.40;;;6.05;;
40204;SDS011;26963;42.666;23.366;2023-06-04T13:47:36;8.82;;;5.93;;
40204;SDS011;26963;42.666;23.366;2023-06-04T13:50:02;6.80;;;5.97;;
40204;SDS011;26963;42.666;23.366;2023-06-04T13:52:28;10.95;;;5.82;;
40204;SDS011;26963;42.666;23.366;2023-06-04T13:54:54;6.60;;;5.90;;
40204;SDS011;26963;42.666;23.366;2023-06-04T13:57:20;7.75;;;5.60;;
40204;SDS011;26963;42.666;23.366;2023-06-04T13:59:45;9.68;;;6.00;;
40204;SDS011;26963;42.666;23.366;2023-06-04T14:02:11;8.70;;;5.85;;
40204;SDS011;26963;42.666;23.366;2023-06-04T14:04:37;9.85;;;6.20;;
40204;SDS011;26963;42.666;23.366;2023-06-04T14:07:02;10.00;;;6.10;;
40204;SDS011;26963;42.666;23.366;2023-06-04T14:09:28;8.80;;;6.15;;
40204;SDS011;26963;42.666;23.366;2023-06-04T14:11:54;6.50;;;5.85;;
40204;SDS011;26963;42.666;23.366;2023-06-04T14:14:20;7.65;;;5.75;;
40204;SDS011;26963;42.666;23.366;2023-06-04T14:16:49;8.40;;;6.43;;
40204;SDS011;26963;42.666;23.366;2023-06-04T14:19:14;12.15;;;6.47;;
40204;SDS011;26963;42.666;23.366;2023-06-04T14:21:41;7.30;;;6.40;;
40204;SDS011;26963;42.666;23.366;2023-06-04T14:24:08;7.50;;;6.70;;
40204;SDS011;26963;42.666;23.366;2023-06-04T14:26:34;9.27;;;6.82;;
40204;SDS011;26963;42.666;23.366;2023-06-04T14:29:00;9.23;;;7.00;;
40204;SDS011;26963;42.666;23.366;2023-06-04T14:31:26;7.93;;;7.13;;
40204;SDS011;26963;42.666;23.366;2023-06-04T14:33:52;10.27;;;6.20;;
40204;SDS011;26963;42.666;23.366;2023-06-04T14:36:18;8.98;;;6.60;;
40204;SDS011;26963;42.666;23.366;2023-06-04T14:38:44;11.93;;;6.60;;
40204;SDS011;26963;42.666;23.366;2023-06-04T14:41:10;7.68;;;6.57;;
40204;SDS011;26963;42.666;23.366;2023-06-04T14:43:35;8.65;;;7.15;;
40204;SDS011;26963;42.666;23.366;2023-06-04T14:46:01;8.45;;;6.43;;
40204;SDS011;26963;42.666;23.366;2023-06-04T14:48:27;10.15;;;6.45;;
40204;SDS011;26963;42.666;23.366;2023-06-04T14:50:52;11.13;;;6.40;;